createdAt,value
2023-03-02T00:02:41.067Z,98494.50
2023-03-02T00:07:43.482Z,97699.53
2023-03-02T00:12:45.658Z,98232.16
2023-03-02T00:17:47.950Z,98301.78
2023-03-02T00:22:50.284Z,98398.31
2023-03-02T00:27:52.551Z,97776.63
2023-03-02T00:32:54.818Z,98347.94
2023-03-02T00:37:57.154Z,97998.38
2023-03-02T00:42:59.386Z,98034.97
2023-03-02T00:48:01.628Z,98022.97
2023-03-02T00:53:05.230Z,97941.53
2023-03-02T00:58:07.474Z,97968.41
2023-03-02T01:03:09.817Z,98433.78
2023-03-02T01:08:12.925Z,98062.75
2023-03-02T01:13:15.132Z,97793.13
2023-03-02T01:18:17.417Z,98491.56
2023-03-02T01:23:19.629Z,98422.78
2023-03-02T01:28:21.962Z,98146.59
2023-03-02T01:33:24.229Z,98011.84
2023-03-02T01:38:26.990Z,98342.91
2023-03-02T01:43:29.643Z,98003.50
2023-03-02T01:48:57.986Z,98192.41
2023-03-02T01:54:11.348Z,98599.44
2023-03-02T01:59:15.274Z,98673.59
2023-03-02T02:04:17.935Z,98646.34
2023-03-02T02:09:21.291Z,98643.63
2023-03-02T02:14:24.224Z,98547.41
2023-03-02T02:19:49.414Z,98679.28
2023-03-02T02:24:57.575Z,98601.00
2023-03-02T02:30:01.752Z,98692.19
2023-03-02T02:35:20.049Z,98702.38
2023-03-02T02:40:46.765Z,98618.19
2023-03-02T02:45:54.571Z,98606.91
2023-03-02T02:51:00.726Z,98422.59
2023-03-02T02:56:03.583Z,98733.56
2023-03-02T03:01:06.587Z,98732.63
2023-03-02T03:06:18.155Z,98595.16
2023-03-02T03:11:23.888Z,98623.16
2023-03-02T03:16:30.018Z,98556.91
2023-03-02T03:21:32.503Z,98661.75
2023-03-02T03:26:35.109Z,98689.66
2023-03-02T03:31:38.122Z,98579.78
2023-03-02T03:36:43.537Z,98708.78
2023-03-02T03:41:46.135Z,98692.84
2023-03-02T03:46:48.915Z,98395.13
2023-03-02T03:51:52.274Z,98677.66
2023-03-02T03:56:54.620Z,98630.84
2023-03-02T04:01:59.398Z,98721.84
2023-03-02T04:07:05.473Z,98612.34
2023-03-02T04:12:09.156Z,98710.72
2023-03-02T04:17:12.933Z,98602.78
2023-03-02T04:22:20.306Z,98632.09
2023-03-02T04:27:23.047Z,98731.47
2023-03-02T04:32:25.321Z,98685.38
2023-03-02T04:37:31.785Z,98755.66
2023-03-02T04:42:34.306Z,98775.97
2023-03-02T04:47:36.611Z,98774.16
2023-03-02T04:52:38.916Z,98737.09
2023-03-02T04:57:41.356Z,98728.31
2023-03-02T05:02:44.254Z,98796.38
2023-03-02T05:07:46.537Z,98708.69
2023-03-02T05:12:54.998Z,98614.66
2023-03-02T05:17:57.729Z,98746.25
2023-03-02T05:23:01.958Z,98813.66
2023-03-02T05:28:05.359Z,98782.88
2023-03-02T05:33:07.853Z,98737.50
2023-03-02T05:38:10.084Z,98722.13
2023-03-02T05:43:17.765Z,98650.31
2023-03-02T05:48:22.561Z,98685.31
2023-03-02T05:53:28.749Z,98642.28
2023-03-02T05:58:31.035Z,98672.53
2023-03-02T06:03:33.192Z,98686.97
2023-03-02T06:08:35.562Z,98795.91
2023-03-02T06:13:39.113Z,98099.16
2023-03-02T06:18:41.760Z,98687.94
2023-03-02T06:23:43.983Z,98218.69
2023-03-02T06:28:52.656Z,98835.75
2023-03-02T06:33:55.784Z,98301.75
2023-03-02T06:39:02.393Z,98656.53
2023-03-02T06:44:08.118Z,98621.25
2023-03-02T06:49:11.154Z,98271.28
2023-03-02T06:54:14.344Z,98306.03
2023-03-02T06:59:16.572Z,98235.59
2023-03-02T07:04:18.792Z,98792.00
2023-03-02T07:09:21.298Z,98554.63
2023-03-02T07:14:23.439Z,98348.16
2023-03-02T07:19:25.734Z,98307.19
2023-03-02T07:24:28.060Z,98355.28
2023-03-02T07:29:30.501Z,98633.22
2023-03-02T07:34:32.745Z,98431.91
2023-03-02T07:39:34.983Z,98771.69
2023-03-02T07:44:37.938Z,97901.63
2023-03-02T07:49:40.242Z,98600.22
2023-03-02T07:54:42.917Z,98076.16
2023-03-02T07:59:45.368Z,98614.22
2023-03-02T08:04:47.780Z,98599.28
2023-03-02T08:09:50.074Z,98154.53
2023-03-02T08:14:52.392Z,98420.28
2023-03-02T08:19:54.656Z,98182.81
2023-03-02T08:24:56.951Z,98552.41
2023-03-02T08:29:59.225Z,98336.03
2023-03-02T08:35:03.971Z,98767.94
2023-03-02T08:40:07.042Z,98122.03
2023-03-02T08:45:09.812Z,98091.63
2023-03-02T08:50:12.114Z,98604.97
2023-03-02T08:55:14.759Z,98245.69
2023-03-02T09:00:18.296Z,98547.72
2023-03-02T09:05:20.717Z,97972.25
2023-03-02T09:10:24.596Z,98097.59
2023-03-02T09:15:27.095Z,98076.31
2023-03-02T09:20:30.096Z,98665.19
2023-03-02T09:25:32.528Z,98637.09
2023-03-02T09:30:34.874Z,98730.69
2023-03-02T09:35:38.861Z,98523.13
2023-03-02T09:40:50.521Z,98259.75
2023-03-02T09:46:04.930Z,98161.63
2023-03-02T09:51:16.793Z,98534.91
2023-03-02T09:56:20.540Z,98536.66
2023-03-02T10:01:33.269Z,98333.28
2023-03-02T10:06:35.508Z,98617.16
2023-03-02T10:11:59.357Z,98617.19
2023-03-02T10:17:42.782Z,98496.06
2023-03-02T10:22:48.551Z,98664.25
2023-03-02T10:27:52.750Z,98596.25
2023-03-02T10:32:57.555Z,98311.06
2023-03-02T10:38:17.185Z,98560.66
2023-03-02T10:43:36.064Z,98629.31
2023-03-02T10:48:59.636Z,98620.13
2023-03-02T10:54:13.647Z,98588.63
2023-03-02T10:59:45.707Z,98614.50
2023-03-02T11:04:48.062Z,98544.66
2023-03-02T11:10:07.438Z,98576.09
2023-03-02T11:15:17.421Z,98577.72
2023-03-02T11:20:26.795Z,98493.97
2023-03-02T11:25:32.960Z,98551.34
2023-03-02T11:30:41.299Z,98527.78
2023-03-02T11:35:53.859Z,98561.00
2023-03-02T11:41:03.367Z,98517.59
2023-03-02T11:46:13.849Z,98512.09
2023-03-02T11:51:24.559Z,98538.06
2023-03-02T11:56:31.707Z,98431.34
2023-03-02T12:01:36.688Z,98467.13
2023-03-02T12:06:41.319Z,98473.34
2023-03-02T12:11:45.789Z,98494.63
2023-03-02T12:16:48.135Z,98359.78
2023-03-02T12:21:58.395Z,97967.94
2023-03-02T12:27:25.850Z,98491.78
2023-03-02T12:32:30.453Z,98412.59
2023-03-02T12:37:47.910Z,98473.03
2023-03-02T12:43:24.143Z,98463.00
2023-03-02T12:48:55.019Z,98379.44
2023-03-02T12:54:12.786Z,98320.03
2023-03-02T12:59:27.181Z,98422.19
2023-03-02T13:04:29.523Z,98417.06
2023-03-02T13:09:31.975Z,98322.13
2023-03-02T13:14:34.293Z,98372.47
2023-03-02T13:19:37.971Z,98296.22
2023-03-02T13:24:51.070Z,98405.19
2023-03-02T13:29:55.813Z,98387.97
2023-03-02T13:35:06.080Z,98372.56
2023-03-02T13:40:22.678Z,98350.41
2023-03-02T13:45:30.138Z,98358.75
2023-03-02T13:50:33.736Z,98346.69
2023-03-02T13:55:36.036Z,98268.38
2023-03-02T14:00:39.591Z,98257.94
2023-03-02T14:05:41.851Z,98187.97
2023-03-02T14:10:44.090Z,98289.41
2023-03-02T14:15:51.518Z,98157.38
2023-03-02T14:20:53.774Z,98306.88
2023-03-02T14:25:57.162Z,98290.56
2023-03-02T14:30:59.559Z,98269.53
2023-03-02T14:36:01.933Z,98275.16
2023-03-02T14:41:05.655Z,98154.69
2023-03-02T14:46:08.083Z,98262.22
2023-03-02T14:51:24.574Z,98258.88
2023-03-02T14:56:26.963Z,97939.09
2023-03-02T15:01:29.268Z,98030.16
2023-03-02T15:06:38.258Z,98251.78
2023-03-02T15:11:40.512Z,98217.00
2023-03-02T15:16:43.144Z,98123.78
2023-03-02T15:21:46.766Z,98147.44
2023-03-02T15:26:52.205Z,98154.44
2023-03-02T15:31:54.721Z,98147.00
2023-03-02T15:36:59.761Z,98135.78
2023-03-02T15:42:02.417Z,98124.06
2023-03-02T15:47:04.800Z,97624.09
2023-03-02T15:52:07.018Z,98163.19
2023-03-02T15:57:10.441Z,98235.41
2023-03-02T16:02:12.855Z,98014.59
2023-03-02T16:07:15.144Z,98118.25
2023-03-02T16:12:21.089Z,98154.72
2023-03-02T16:23:02.796Z,98205.81
2023-03-02T16:28:07.727Z,98228.72
2023-03-02T16:33:28.147Z,98222.81
2023-03-02T16:38:30.452Z,98155.00
2023-03-02T16:43:32.886Z,98174.88
2023-03-02T16:48:54.869Z,98113.66
2023-03-02T16:54:16.423Z,97923.22
2023-03-02T16:59:28.970Z,97617.53
2023-03-02T17:04:57.467Z,98057.34
2023-03-02T17:10:01.880Z,98064.41
2023-03-02T17:15:08.538Z,97675.84
2023-03-02T17:20:12.466Z,98021.78
2023-03-02T17:25:16.979Z,97923.75
2023-03-02T17:30:19.552Z,98230.75
2023-03-02T17:35:22.083Z,98044.53
2023-03-02T17:40:24.446Z,97673.78
2023-03-02T17:45:28.412Z,98177.88
2023-03-02T17:50:33.212Z,97445.66
2023-03-02T17:55:35.550Z,98185.28
2023-03-02T18:00:41.394Z,98200.25
2023-03-02T18:05:44.901Z,97968.47
2023-03-02T18:10:50.670Z,98163.13
2023-03-02T18:15:53.080Z,98065.78
2023-03-02T18:20:55.821Z,98129.44
2023-03-02T18:26:01.565Z,98022.28
2023-03-02T18:31:08.762Z,98180.84
2023-03-02T18:36:12.560Z,98159.50
2023-03-02T18:41:17.398Z,98144.59
2023-03-02T18:46:24.697Z,98181.06
2023-03-02T18:51:27.193Z,98062.97
2023-03-02T18:56:30.036Z,97981.38
2023-03-02T19:01:35.272Z,98053.56
2023-03-02T19:06:43.432Z,97578.56
2023-03-02T19:11:45.826Z,97307.56
2023-03-02T19:16:48.386Z,98043.19
2023-03-02T19:21:51.051Z,97978.03
2023-03-02T19:26:53.440Z,97950.84
2023-03-02T19:31:56.103Z,97690.31
2023-03-02T19:36:58.437Z,98045.41
2023-03-02T19:42:00.684Z,97417.47
2023-03-02T19:47:02.894Z,98123.88
2023-03-02T19:52:05.496Z,97597.34
2023-03-02T19:57:08.360Z,97645.75
2023-03-02T20:02:11.258Z,97844.25
2023-03-02T20:07:14.133Z,97309.72
2023-03-02T20:12:16.817Z,97702.66
2023-03-02T20:17:20.070Z,98090.59
2023-03-02T20:22:22.749Z,97891.19
2023-03-02T20:27:25.099Z,98112.28
2023-03-02T20:32:27.701Z,97918.06
2023-03-02T20:37:30.202Z,97885.59
2023-03-02T20:42:34.255Z,97569.19
2023-03-02T20:47:37.427Z,97410.25
2023-03-02T20:52:39.660Z,97439.16
2023-03-02T20:57:41.823Z,97534.56
2023-03-02T21:02:47.577Z,97251.09
2023-03-02T21:07:50.592Z,97523.50
2023-03-02T21:12:52.939Z,98020.19
2023-03-02T21:17:56.330Z,97737.38
2023-03-02T21:22:59.902Z,97478.00
2023-03-02T21:28:02.092Z,97946.72
2023-03-02T21:33:04.322Z,97274.56
2023-03-02T21:38:07.139Z,97621.13
2023-03-02T21:43:09.807Z,97560.22
2023-03-02T21:48:14.084Z,97299.22
2023-03-02T21:53:16.497Z,97396.16
2023-03-02T21:58:18.658Z,97408.84
2023-03-02T22:03:21.037Z,97916.28
2023-03-02T22:08:23.357Z,97306.19
2023-03-02T22:13:33.188Z,97843.19
2023-03-02T22:18:35.456Z,97822.25
2023-03-02T22:23:37.689Z,97857.63
2023-03-02T22:28:41.280Z,97406.03
2023-03-02T22:33:43.581Z,97892.31
2023-03-02T22:38:51.959Z,97830.00
2023-03-02T22:43:55.173Z,97503.03
2023-03-02T22:48:57.581Z,97355.13
2023-03-02T22:54:00.858Z,97839.19
2023-03-02T22:59:27.407Z,97899.19
2023-03-02T23:04:37.322Z,97788.66
2023-03-02T23:09:39.704Z,97933.38
2023-03-02T23:15:14.817Z,97890.72
2023-03-02T23:20:17.278Z,97867.16
2023-03-02T23:25:19.818Z,97898.47
2023-03-02T23:30:22.794Z,97960.47
2023-03-02T23:35:25.215Z,97611.91
2023-03-02T23:40:37.093Z,97757.91
2023-03-02T23:45:40.199Z,97750.53
2023-03-02T23:50:43.210Z,97883.81
2023-03-02T23:55:48.927Z,97620.19
